Nearby METAR Reports

KLNK - Lincoln, Nebraska, USA
Distance from station: WNW 8mi, 13km
Updated: Tue, 27-Oct-2020 12:54am CDT
Overcast
Overcast
 Wind from calm
Wind: Calm
Temperature: 27°F , -3°C
Dew Point: 16°F , -9°C
Humidity: 64%
Barometer: 30.43 inHg , 1030.5 hPa
Clouds: Overcast
Visibility: 10 miles , 16 km
Cloud details: Overcast 10000 ft
2020/10/27 05:54 KLNK 270554Z AUTO 00000KT 10SM OVC100 M03/M09 A3043 RMK AO2 SLP320 T10331089 11028 21044 410061067 50003
KAHQ - Wahoo, Nebraska, USA
Distance from station: N 31mi, 49km
Updated: Tue, 27-Oct-2020 1:15am CDT
Mostly Cloudy
Mostly Cloudy
 Wind from calm
Wind: Calm
Temperature: 27°F , -3°C
Dew Point: 18°F , -8°C
Humidity: 69%
Barometer: 30.40 inHg , 1029.5 hPa
Clouds: Mostly Cloudy
Visibility: 10 miles , 16 km
Cloud details: Partly Cloudy 10000 ft
Mostly Cloudy 12000 ft
2020/10/27 06:15 KAHQ 270615Z AUTO 00000KT 10SM SCT100 BKN120 M03/M08 A3040 RMK AO2 T10301085
 
KBIE - Beatrice Municip, Nebraska, USA
Distance from station: S 36mi, 57km
Updated: Tue, 27-Oct-2020 1:15am CDT
Overcast
Overcast
 Wind from ENE
Wind: ENE 3 mph , 6 km/h
Temperature: 27°F , -3°C
Dew Point: 19°F , -7°C
Humidity: 74%
Barometer: 30.39 inHg , 1029.1 hPa
Clouds: Overcast
Visibility: 10 miles , 16 km
Cloud details: Overcast 9500 ft
2020/10/27 06:15 KBIE 270615Z AUTO 07003KT 10SM OVC095 M03/M07 A3039 RMK AO2 T10301073
KMLE - Omaha/Millard, Nebraska, USA
Distance from station: NE 39mi, 63km
Updated: Tue, 27-Oct-2020 1:15am CDT
Overcast
Overcast
 Wind from NW
Wind: NW 3 mph , 6 km/h
Temperature: 28°F , -2°C
Dew Point: 16°F , -9°C
Humidity: 59%
Barometer: 30.42 inHg , 1030.1 hPa
Clouds: Overcast
Visibility: 10 miles , 16 km
Cloud details: Overcast 10000 ft
2020/10/27 06:15 KMLE 270615Z AUTO 31003KT 10SM OVC100 M02/M09 A3042 RMK AO2 T10201086
 
KPMV - Plattsmouth Muni, Nebraska, USA
Distance from station: ENE 39mi, 63km
Updated: Tue, 27-Oct-2020 1:15am CDT
Overcast
Overcast
 Wind from calm
Wind: Calm
Temperature: 28°F , -2°C
Dew Point: 19°F , -7°C
Humidity: 69%
Barometer: 30.41 inHg , 1029.8 hPa
Clouds: Overcast
Visibility: 10 miles , 16 km
Cloud details: Overcast 10000 ft
2020/10/27 06:15 KPMV 270615Z AUTO 00000KT 10SM OVC100 M02/M07 A3041 RMK AO2 T10251070
KAFK - Nebraska City, Nebraska, USA
Distance from station: ESE 43mi, 69km
Updated: Tue, 27-Oct-2020 1:15am CDT
Overcast
Overcast
 Wind from N
Wind: N 5 mph , 7 km/h
Temperature: 28°F , -2°C
Wind Chill: 22°F , -6°C
Dew Point: 21°F , -6°C
Humidity: 74%
Barometer: 30.41 inHg , 1029.8 hPa
Clouds: Overcast
Visibility: 10 miles , 16 km
Cloud details: Overcast 9000 ft
2020/10/27 06:15 KAFK 270615Z AUTO 36004KT 10SM OVC090 M02/M06 A3041 RMK AO2 T10231061
 
KOFF - Offutt Afb/Belle, Nebraska, USA
Distance from station: ENE 44mi, 70km
Updated: Tue, 27-Oct-2020 12:56am CDT
Overcast
Overcast
 Wind from calm
Wind: Calm
Temperature: 27°F , -3°C
Dew Point: 18°F , -8°C
Humidity: 69%
Barometer: 30.41 inHg , 1029.8 hPa
Clouds: Overcast
Visibility: 10 miles , 16 km
Cloud details: Overcast 10000 ft
2020/10/27 05:56 KOFF 270556Z AUTO 00000KT 10SM OVC100 M03/M08 A3041 RMK AO2 SLP317 T10261085 11016 21027 400061054 55004
KFET - Fremont Muni Arp, Nebraska, USA
Distance from station: N 46mi, 74km
Updated: Tue, 27-Oct-2020 1:15am CDT
Clear
Clear
 Wind from calm
Wind: Calm
Temperature: 27°F , -3°C
Dew Point: 16°F , -9°C
Humidity: 64%
Barometer: 30.40 inHg , 1029.5 hPa
Clouds: Clear
Visibility: 10 miles , 16 km
2020/10/27 06:15 KFET 270615Z AUTO 00000KT 10SM CLR M03/M09 A3040 RMK AO2 T10301093
 
KBTA - Blair Muni, Nebraska, USA
Distance from station: NNE 51mi, 82km
Updated: Tue, 27-Oct-2020 1:15am CDT
Mostly Cloudy
Mostly Cloudy
 Wind from calm
Wind: Calm
Temperature: 25°F , -4°C
Dew Point: 14°F , -10°C
Humidity: 63%
Barometer: 30.40 inHg , 1029.5 hPa
Clouds: Mostly Cloudy
Visibility: 10 miles , 16 km
Cloud details: Mostly Cloudy 10000 ft
2020/10/27 06:15 KBTA 270615Z AUTO 00000KT 10SM BKN100 M04/M10 A3040 RMK AO2 T10401096
KJYR - York, Nebraska, USA
Distance from station: W 52mi, 84km
Updated: Tue, 27-Oct-2020 1:15am CDT
Mostly Cloudy
Mostly Cloudy
 Wind from calm
Wind: Calm
Temperature: 25°F , -4°C
Dew Point: 18°F , -8°C
Humidity: 74%
Barometer: 30.37 inHg , 1028.4 hPa
Clouds: Mostly Cloudy
Visibility: 10 miles , 16 km
Cloud details: Mostly Cloudy 11000 ft
2020/10/27 06:15 KJYR 270615Z AUTO 00000KT 10SM BKN110 M04/M08 A3037 RMK AO2
 
KOMA - Omaha/Eppley, Nebraska, USA
Distance from station: NE 53mi, 85km
Updated: Tue, 27-Oct-2020 12:52am CDT
Overcast
Overcast
 Wind from calm
Wind: Calm
Temperature: 27°F , -3°C
Dew Point: 18°F , -8°C
Humidity: 69%
Barometer: 30.43 inHg , 1030.5 hPa
Clouds: Overcast
Visibility: 10 miles , 16 km
Cloud details: Overcast 10000 ft
2020/10/27 05:52 KOMA 270552Z 00000KT 10SM OVC100 M03/M08 A3043 RMK AO2 SLP316 T10281083 11022 21033 400111067 50002
KOLU - Columbus Muni, Nebraska, USA
Distance from station: NW 58mi, 93km
Updated: Tue, 27-Oct-2020 12:56am CDT
Clear
Clear
 Wind from SSW
Wind: SSW 3 mph , 6 km/h
Temperature: 25°F , -4°C
Dew Point: 16°F , -9°C
Humidity: 69%
Barometer: 30.40 inHg , 1029.5 hPa
Clouds: Clear
Visibility: 10 miles , 16 km
2020/10/27 05:56 KOLU 270556Z AUTO 20003KT 10SM CLR M04/M09 A3040 RMK AO2 SLP315 T10441094 11044 21050 410111094 58001 FZRANO